createdAt,value
2019-01-03T00:02:07.038Z,25.40
2019-01-03T00:04:44.341Z,20.33
2019-01-03T00:07:30.554Z,30.87
2019-01-03T00:10:19.590Z,26.27
2019-01-03T00:12:53.358Z,27.37
2019-01-03T00:15:30.208Z,32.27
2019-01-03T00:18:17.719Z,30.10
2019-01-03T00:20:51.953Z,30.70
2019-01-03T00:23:23.210Z,24.93
2019-01-03T00:26:03.109Z,22.53
2019-01-03T00:28:50.827Z,26.93
2019-01-03T00:31:24.810Z,27.73
2019-01-03T00:33:56.043Z,22.30
2019-01-03T00:36:45.401Z,19.50
2019-01-03T00:39:19.570Z,22.23
2019-01-03T00:41:50.814Z,24.83
2019-01-03T00:44:22.068Z,27.53
2019-01-03T00:46:53.319Z,20.23
2019-01-03T00:49:30.417Z,22.40
2019-01-03T00:52:01.690Z,21.73
2019-01-03T00:54:49.254Z,17.07
2019-01-03T00:57:26.481Z,21.30
2019-01-03T01:00:09.671Z,20.20
2019-01-03T01:02:57.229Z,25.03
2019-01-03T01:05:34.559Z,20.63
2019-01-03T01:08:08.602Z,27.87
2019-01-03T01:10:39.848Z,20.13
2019-01-03T01:13:27.830Z,25.90
2019-01-03T01:16:07.977Z,28.07
2019-01-03T01:18:40.294Z,28.10
2019-01-03T01:21:20.433Z,20.60
2019-01-03T01:24:06.617Z,17.90
2019-01-03T01:26:43.669Z,17.93
2019-01-03T01:29:17.811Z,22.70
2019-01-03T01:31:49.833Z,21.60
2019-01-03T01:34:21.083Z,22.87
2019-01-03T01:36:55.249Z,18.80
2019-01-03T01:39:44.853Z,21.77
2019-01-03T01:42:22.123Z,21.60
2019-01-03T01:44:56.295Z,19.97
2019-01-03T01:47:27.539Z,22.27
2019-01-03T01:49:58.794Z,18.43
2019-01-03T01:52:35.753Z,19.87
2019-01-03T01:55:09.683Z,18.73
2019-01-03T01:57:43.875Z,22.10
2019-01-03T02:00:27.248Z,20.40
2019-01-03T02:03:01.208Z,20.50
2019-01-03T02:05:48.811Z,18.23
2019-01-03T02:08:20.075Z,25.23
2019-01-03T02:11:07.847Z,23.77
2019-01-03T02:13:45.064Z,22.07
2019-01-03T02:16:16.320Z,16.87
2019-01-03T02:18:59.646Z,22.20
2019-01-03T02:21:30.905Z,21.27
2019-01-03T02:24:18.633Z,19.47
2019-01-03T02:27:06.362Z,22.40
2019-01-03T02:29:54.363Z,24.93
2019-01-03T02:32:25.675Z,22.10
2019-01-03T02:34:59.964Z,23.73
2019-01-03T02:37:43.236Z,20.53
2019-01-03T02:40:30.648Z,25.87
2019-01-03T02:43:01.906Z,28.67
2019-01-03T02:45:33.156Z,24.53
2019-01-03T02:48:10.262Z,24.80
2019-01-03T02:50:50.400Z,19.47
2019-01-03T02:53:37.998Z,20.10
2019-01-03T02:56:15.495Z,24.07
2019-01-03T02:58:49.488Z,28.70
2019-01-03T03:01:20.728Z,23.77
2019-01-03T03:04:03.742Z,19.77
2019-01-03T03:06:37.707Z,25.07
2019-01-03T03:09:12.019Z,18.13
2019-01-03T03:11:52.151Z,25.70
2019-01-03T03:14:32.328Z,18.70
2019-01-03T03:17:06.343Z,17.03
2019-01-03T03:19:37.617Z,21.23
2019-01-03T03:22:14.639Z,21.80
2019-01-03T03:24:51.633Z,22.37
2019-01-03T03:27:26.775Z,22.43
2019-01-03T03:30:10.298Z,19.63
2019-01-03T03:32:59.912Z,22.37
2019-01-03T03:35:34.320Z,20.33
2019-01-03T03:38:23.744Z,27.83
2019-01-03T03:41:00.446Z,23.50
2019-01-03T03:43:34.263Z,15.77
2019-01-03T03:46:05.608Z,24.87
2019-01-03T03:48:36.859Z,19.57
2019-01-03T03:51:20.261Z,22.00
2019-01-03T03:54:08.039Z,23.57
2019-01-03T03:56:42.096Z,16.23
2019-01-03T03:59:22.547Z,26.50
2019-01-03T04:01:53.812Z,19.27
2019-01-03T04:04:34.348Z,17.77
2019-01-03T04:07:11.387Z,23.40
2019-01-03T04:09:45.360Z,14.83
2019-01-03T04:12:25.489Z,19.70
2019-01-03T04:14:56.710Z,19.13
2019-01-03T04:17:27.963Z,18.60
2019-01-03T04:20:15.333Z,23.27
2019-01-03T04:22:49.519Z,18.10
2019-01-03T04:25:23.791Z,19.27
2019-01-03T04:27:58.064Z,22.20
2019-01-03T04:30:29.315Z,20.83
2019-01-03T04:33:16.803Z,21.27
2019-01-03T04:35:50.967Z,26.97
2019-01-03T04:38:38.592Z,19.77
2019-01-03T04:41:12.692Z,21.37
2019-01-03T04:43:56.190Z,21.37
2019-01-03T04:46:39.326Z,18.60
2019-01-03T04:49:16.740Z,25.07
2019-01-03T04:52:03.576Z,19.27
2019-01-03T04:54:34.836Z,17.87
2019-01-03T04:57:22.495Z,17.10
2019-01-03T05:00:10.207Z,19.13
2019-01-03T05:02:53.410Z,18.40
2019-01-03T05:05:27.608Z,16.37
2019-01-03T05:08:15.434Z,22.63
2019-01-03T05:11:03.177Z,17.33
2019-01-03T05:13:40.205Z,18.50
2019-01-03T05:16:11.448Z,23.90
2019-01-03T05:18:42.677Z,19.23
2019-01-03T05:21:17.018Z,22.80
2019-01-03T05:23:57.049Z,15.93
2019-01-03T05:26:40.308Z,22.77
2019-01-03T05:29:26.466Z,20.60
2019-01-03T05:32:06.836Z,20.27
2019-01-03T05:34:54.380Z,20.23
2019-01-03T05:37:37.558Z,19.03
2019-01-03T05:40:14.544Z,17.20
2019-01-03T05:42:51.555Z,22.40
2019-01-03T05:45:22.801Z,22.33
2019-01-03T05:47:54.044Z,20.23
2019-01-03T05:50:25.284Z,22.00
2019-01-03T05:53:11.280Z,16.47
2019-01-03T05:55:42.520Z,18.37
2019-01-03T05:58:22.810Z,21.17
2019-01-03T06:00:54.057Z,19.33
2019-01-03T06:03:43.476Z,16.70
2019-01-03T06:06:23.894Z,21.43
2019-01-03T06:08:55.135Z,15.50
2019-01-03T06:11:29.314Z,16.30
2019-01-03T06:14:16.799Z,23.43
2019-01-03T06:16:48.032Z,25.17
2019-01-03T06:19:31.650Z,22.30
2019-01-03T06:22:02.903Z,16.40
2019-01-03T06:24:45.920Z,14.27
2019-01-03T06:27:33.198Z,14.87
2019-01-03T06:36:08.764Z,9.23
2019-01-03T06:38:40.000Z,16.57
2019-01-03T06:41:17.798Z,15.37
2019-01-03T06:44:07.467Z,13.40
2019-01-03T06:49:53.800Z,18.17
2019-01-03T06:55:17.943Z,13.53
2019-01-03T06:58:05.543Z,19.13
2019-01-03T07:00:52.014Z,13.47
2019-01-03T07:03:26.193Z,12.03
2019-01-03T07:05:57.436Z,17.37
2019-01-03T07:11:24.176Z,17.13
2019-01-03T07:14:01.157Z,13.10
2019-01-03T07:16:35.088Z,14.30
2019-01-03T07:19:26.086Z,15.53
2019-01-03T07:21:57.332Z,13.90
2019-01-03T07:24:43.370Z,21.63
2019-01-03T07:27:30.806Z,24.40
2019-01-03T07:30:18.326Z,14.43
2019-01-03T07:33:06.093Z,13.47
2019-01-03T07:35:53.798Z,15.63
2019-01-03T07:38:41.478Z,15.67
2019-01-03T07:41:12.725Z,18.30
2019-01-03T07:44:00.244Z,15.77
2019-01-03T07:46:31.482Z,17.97
2019-01-03T07:49:08.791Z,23.13
2019-01-03T07:51:55.051Z,17.60
2019-01-03T07:54:27.374Z,17.63
2019-01-03T07:57:10.715Z,16.10
2019-01-03T07:59:47.704Z,15.93
2019-01-03T08:02:24.656Z,11.13
2019-01-03T08:04:58.880Z,14.67
2019-01-03T08:07:38.888Z,15.53
2019-01-03T08:10:10.114Z,12.03
2019-01-03T08:12:41.353Z,13.37
2019-01-03T08:15:18.546Z,15.30
2019-01-03T08:17:52.556Z,13.30
2019-01-03T08:20:23.812Z,11.33
2019-01-03T08:23:02.238Z,14.63
2019-01-03T08:25:42.438Z,17.77
2019-01-03T08:28:30.162Z,11.80
2019-01-03T08:31:07.576Z,10.03
2019-01-03T08:33:55.414Z,14.80
2019-01-03T08:36:42.992Z,11.90
2019-01-03T08:39:32.502Z,11.67
2019-01-03T08:42:15.870Z,14.00
2019-01-03T08:45:02.014Z,13.87
2019-01-03T08:47:50.364Z,13.90
2019-01-03T08:50:30.873Z,13.30
2019-01-03T08:53:02.118Z,12.33
2019-01-03T08:55:51.842Z,11.53
2019-01-03T08:58:23.088Z,16.83
2019-01-03T09:01:12.468Z,12.93
2019-01-03T09:03:43.810Z,10.90
2019-01-03T09:06:15.059Z,14.90
2019-01-03T09:09:01.560Z,9.47
2019-01-03T09:11:43.150Z,11.93
2019-01-03T09:14:14.390Z,12.33
2019-01-03T09:16:57.845Z,10.53
2019-01-03T09:19:45.330Z,10.67
2019-01-03T09:22:17.467Z,10.97
2019-01-03T09:24:54.579Z,7.93
2019-01-03T09:27:25.811Z,9.33
2019-01-03T09:30:13.400Z,9.67
2019-01-03T09:32:56.617Z,6.63
2019-01-03T09:35:27.872Z,9.03
2019-01-03T09:38:01.869Z,9.83
2019-01-03T09:40:49.372Z,13.37
2019-01-03T09:43:38.974Z,12.07
2019-01-03T09:46:08.584Z,13.30
2019-01-03T09:48:38.178Z,8.57
2019-01-03T09:51:07.793Z,9.23
2019-01-03T09:53:37.384Z,12.73
2019-01-03T09:56:06.982Z,8.73
2019-01-03T09:58:36.588Z,10.80
2019-01-03T10:01:06.192Z,8.47
2019-01-03T10:03:35.786Z,8.53
2019-01-03T10:06:05.408Z,9.03
2019-01-03T10:08:34.986Z,7.60
2019-01-03T10:11:04.596Z,7.07
2019-01-03T10:13:34.210Z,9.27
2019-01-03T10:16:03.820Z,10.10
2019-01-03T10:18:33.420Z,9.30
2019-01-03T10:21:03.040Z,11.53
2019-01-03T10:23:32.698Z,9.93
2019-01-03T10:26:02.314Z,9.50
2019-01-03T10:28:31.937Z,11.77
2019-01-03T10:31:01.532Z,12.80
2019-01-03T10:33:31.150Z,7.83
2019-01-03T10:36:00.740Z,12.00
2019-01-03T10:38:30.348Z,9.23
2019-01-03T10:40:59.940Z,7.83
2019-01-03T10:43:29.540Z,12.10
2019-01-03T10:45:59.140Z,13.17
2019-01-03T10:48:28.849Z,10.30
2019-01-03T10:50:58.460Z,6.70
2019-01-03T10:53:28.076Z,10.63
2019-01-03T10:55:57.666Z,8.87
2019-01-03T10:58:28.366Z,5.60
2019-01-03T11:00:57.963Z,6.60
2019-01-03T11:03:27.567Z,11.37
2019-01-03T11:05:57.169Z,10.87
2019-01-03T11:08:26.801Z,13.53
2019-01-03T11:11:01.995Z,7.90
2019-01-03T11:13:27.692Z,6.97
2019-01-03T11:15:57.291Z,6.93
2019-01-03T11:18:26.897Z,7.50
2019-01-03T11:20:56.495Z,6.63
2019-01-03T11:23:26.075Z,9.97
2019-01-03T11:25:59.003Z,5.60
2019-01-03T11:28:30.187Z,5.73
2019-01-03T11:30:59.975Z,8.17
2019-01-03T11:33:29.606Z,10.27
2019-01-03T11:35:59.207Z,7.73
2019-01-03T11:38:28.804Z,9.93
2019-01-03T11:40:58.440Z,9.47
2019-01-03T11:43:28.032Z,13.93
2019-01-03T11:45:57.655Z,12.43
2019-01-03T11:48:27.273Z,7.40
2019-01-03T11:50:56.877Z,8.13
2019-01-03T11:53:26.468Z,8.53
2019-01-03T11:55:56.083Z,14.10
2019-01-03T11:58:25.675Z,15.27
2019-01-03T12:00:55.361Z,8.53
2019-01-03T12:03:26.654Z,14.07
2019-01-03T12:05:56.259Z,13.10
2019-01-03T12:08:25.867Z,6.53
2019-01-03T12:10:55.459Z,6.63
2019-01-03T12:13:25.072Z,7.70
2019-01-03T12:15:54.669Z,12.63
2019-01-03T12:18:25.344Z,10.97
2019-01-03T12:20:54.963Z,11.00
2019-01-03T12:23:24.657Z,8.80
2019-01-03T12:25:54.233Z,8.40
2019-01-03T12:28:23.892Z,11.00
2019-01-03T12:30:53.538Z,8.13
2019-01-03T12:33:23.163Z,12.03
2019-01-03T12:35:52.945Z,9.90
2019-01-03T12:38:22.554Z,12.00
2019-01-03T12:40:52.180Z,9.73
2019-01-03T12:43:21.784Z,6.77
2019-01-03T12:45:51.424Z,10.30
2019-01-03T12:48:21.007Z,7.33
2019-01-03T12:50:50.602Z,8.50
2019-01-03T12:53:20.280Z,9.30
2019-01-03T12:55:49.880Z,12.30
2019-01-03T12:58:19.487Z,5.47
2019-01-03T13:00:49.088Z,8.60
2019-01-03T13:03:18.670Z,7.27
2019-01-03T13:05:48.296Z,12.17
2019-01-03T13:08:17.882Z,8.27
2019-01-03T13:10:47.506Z,8.93
2019-01-03T13:13:17.108Z,10.07
2019-01-03T13:15:46.732Z,13.27
2019-01-03T13:18:16.344Z,9.20
2019-01-03T13:20:45.927Z,10.00
2019-01-03T13:23:15.561Z,6.83
2019-01-03T13:25:45.154Z,9.57
2019-01-03T13:28:14.774Z,7.20
2019-01-03T13:30:44.372Z,10.70
2019-01-03T13:33:14.008Z,10.97
2019-01-03T13:35:43.612Z,10.80
2019-01-03T13:38:13.298Z,8.30
2019-01-03T13:40:42.892Z,4.73
2019-01-03T13:43:12.590Z,6.10
2019-01-03T13:45:42.184Z,7.10
2019-01-03T13:48:11.803Z,5.03
2019-01-03T13:50:41.396Z,7.90
2019-01-03T13:53:11.001Z,9.33
2019-01-03T13:55:40.601Z,6.10
2019-01-03T13:58:10.185Z,6.53
2019-01-03T14:00:39.791Z,10.27
2019-01-03T14:03:09.399Z,5.87
2019-01-03T14:05:39.006Z,10.30
2019-01-03T14:08:08.599Z,6.43
2019-01-03T14:10:38.206Z,7.73
2019-01-03T14:13:07.791Z,7.33
2019-01-03T14:15:37.391Z,10.00
2019-01-03T14:18:06.987Z,6.60
2019-01-03T14:20:36.591Z,7.57
2019-01-03T14:23:06.180Z,8.57
2019-01-03T14:25:35.779Z,7.53
2019-01-03T14:28:05.380Z,11.37
2019-01-03T14:30:36.059Z,7.83
2019-01-03T14:33:05.648Z,8.17
2019-01-03T14:35:35.256Z,5.40
2019-01-03T14:38:04.872Z,7.90
2019-01-03T14:40:34.473Z,8.20
2019-01-03T14:43:04.091Z,6.97
2019-01-03T14:45:33.713Z,5.70
2019-01-03T14:48:03.310Z,10.30
2019-01-03T14:50:39.655Z,6.43
2019-01-03T14:53:13.247Z,5.37
2019-01-03T14:55:44.625Z,5.40
2019-01-03T14:58:15.963Z,7.10
2019-01-03T15:00:48.040Z,7.97
2019-01-03T15:03:27.980Z,5.57
2019-01-03T15:06:12.848Z,5.60
2019-01-03T15:08:35.476Z,8.40
2019-01-03T15:11:05.071Z,6.40
2019-01-03T15:13:34.675Z,8.43
2019-01-03T15:16:04.284Z,6.37
2019-01-03T15:18:33.915Z,9.10
2019-01-03T15:21:03.492Z,10.07
2019-01-03T15:23:33.102Z,6.17
2019-01-03T15:26:03.722Z,9.13
2019-01-03T15:28:33.318Z,8.60
2019-01-03T15:31:02.912Z,7.73
2019-01-03T15:33:32.517Z,11.17
2019-01-03T15:36:02.138Z,10.27
2019-01-03T15:38:31.768Z,12.63
2019-01-03T15:41:02.480Z,9.37
2019-01-03T15:43:32.090Z,18.23
2019-01-03T15:46:01.704Z,6.20
2019-01-03T15:48:31.317Z,9.40
2019-01-03T15:51:00.940Z,7.37
2019-01-03T15:53:30.540Z,5.80
2019-01-03T15:56:00.201Z,5.00
2019-01-03T15:58:29.847Z,5.63
2019-01-03T16:00:59.521Z,4.70
2019-01-03T16:03:29.255Z,6.70
2019-01-03T16:05:58.848Z,7.50
2019-01-03T16:08:28.480Z,9.27
2019-01-03T16:10:58.087Z,7.37
2019-01-03T16:13:27.713Z,8.17
2019-01-03T16:15:57.341Z,6.73
2019-01-03T16:18:26.976Z,6.13
2019-01-03T16:20:56.566Z,6.23
2019-01-03T16:23:26.168Z,7.13
2019-01-03T16:25:55.808Z,6.37
2019-01-03T16:28:25.408Z,6.87
2019-01-03T16:30:55.006Z,6.10
2019-01-03T16:33:24.621Z,8.70
2019-01-03T16:35:54.205Z,7.13
2019-01-03T16:38:23.806Z,8.00
2019-01-03T16:40:53.426Z,9.77
2019-01-03T16:43:23.080Z,5.63
2019-01-03T16:45:52.684Z,10.33
2019-01-03T16:48:22.296Z,9.47
2019-01-03T16:50:51.900Z,9.13
2019-01-03T16:53:21.504Z,6.87
2019-01-03T16:55:51.123Z,6.60
2019-01-03T16:58:20.722Z,11.80
2019-01-03T17:00:50.350Z,11.17
2019-01-03T17:03:19.927Z,7.50
2019-01-03T17:05:49.570Z,5.63
2019-01-03T17:08:19.224Z,7.80
2019-01-03T17:10:48.840Z,9.30
2019-01-03T17:13:18.440Z,8.50
2019-01-03T17:15:48.106Z,7.07
2019-01-03T17:18:17.713Z,9.60
2019-01-03T17:20:47.315Z,9.23
2019-01-03T17:23:16.924Z,5.40
2019-01-03T17:25:46.524Z,9.30
2019-01-03T17:28:16.132Z,8.23
2019-01-03T17:30:45.741Z,9.67
2019-01-03T17:33:15.338Z,11.67
2019-01-03T17:35:44.932Z,10.17
2019-01-03T17:38:14.542Z,9.77
2019-01-03T17:40:44.132Z,7.37
2019-01-03T17:43:13.740Z,8.23
2019-01-03T17:45:43.348Z,10.63
2019-01-03T17:48:12.968Z,7.33
2019-01-03T17:50:42.555Z,8.30
2019-01-03T17:53:12.172Z,7.03
2019-01-03T17:55:41.761Z,8.57
2019-01-03T17:58:11.374Z,7.50
2019-01-03T18:00:41.045Z,15.37
2019-01-03T18:03:10.696Z,7.10
2019-01-03T18:05:40.305Z,7.20
2019-01-03T18:08:09.900Z,10.67
2019-01-03T18:10:39.508Z,11.73
2019-01-03T18:13:09.116Z,10.47
2019-01-03T18:15:38.744Z,7.20
2019-01-03T18:18:09.266Z,8.90
2019-01-03T18:20:38.884Z,10.20
2019-01-03T18:23:08.544Z,10.27
2019-01-03T18:25:38.178Z,8.70
2019-01-03T18:28:07.851Z,8.67
2019-01-03T18:30:37.492Z,9.30
2019-01-03T18:33:07.113Z,10.93
2019-01-03T18:35:36.721Z,14.00
2019-01-03T18:38:06.319Z,10.60
2019-01-03T18:41:00.189Z,10.17
2019-01-03T18:43:29.809Z,8.87
2019-01-03T18:45:59.421Z,7.60
2019-01-03T18:48:28.995Z,9.17
2019-01-03T18:50:58.621Z,13.40
2019-01-03T18:53:32.815Z,5.33
2019-01-03T18:56:06.602Z,5.63
2019-01-03T18:58:36.269Z,9.27
2019-01-03T19:01:05.896Z,10.40
2019-01-03T19:03:35.485Z,5.40
2019-01-03T19:06:05.113Z,9.47
2019-01-03T19:08:34.738Z,6.67
2019-01-03T19:11:07.391Z,8.50
2019-01-03T19:13:37.019Z,5.57
2019-01-03T19:16:06.631Z,10.33
2019-01-03T19:18:36.237Z,8.53
2019-01-03T19:21:05.825Z,10.73
2019-01-03T19:23:35.441Z,7.67
2019-01-03T19:26:05.274Z,6.63
2019-01-03T19:28:34.888Z,5.63
2019-01-03T19:31:04.505Z,6.80
2019-01-03T19:33:34.137Z,8.90
2019-01-03T19:36:03.765Z,11.63
2019-01-03T19:38:33.381Z,8.30
2019-01-03T19:41:02.966Z,12.67
2019-01-03T19:43:32.589Z,8.17
2019-01-03T19:46:02.197Z,7.80
2019-01-03T19:48:31.797Z,8.63
2019-01-03T19:51:01.398Z,9.00
2019-01-03T19:53:31.007Z,7.43
2019-01-03T19:56:00.604Z,10.73
2019-01-03T19:58:30.292Z,11.67
2019-01-03T20:00:59.895Z,10.57
2019-01-03T20:03:29.549Z,9.93
2019-01-03T20:05:59.144Z,8.97
2019-01-03T20:08:28.874Z,9.73
2019-01-03T20:10:58.499Z,11.60
2019-01-03T20:13:28.129Z,8.23
2019-01-03T20:15:57.725Z,8.97
2019-01-03T20:18:29.440Z,8.53
2019-01-03T20:21:03.811Z,9.93
2019-01-03T20:23:33.119Z,9.90
2019-01-03T20:26:02.755Z,9.97
2019-01-03T20:28:32.507Z,10.00
2019-01-03T20:31:02.152Z,8.93
2019-01-03T20:33:31.793Z,10.30
2019-01-03T20:36:01.399Z,8.77
2019-01-03T20:38:31.009Z,8.77
2019-01-03T20:41:00.623Z,14.00
2019-01-03T20:43:30.238Z,10.37
2019-01-03T20:45:59.884Z,10.97
2019-01-03T20:48:29.534Z,10.70
2019-01-03T20:50:59.162Z,16.53
2019-01-03T20:53:28.752Z,12.67
2019-01-03T20:55:58.372Z,10.97
2019-01-03T20:58:27.975Z,9.90
2019-01-03T21:00:57.583Z,16.37
2019-01-03T21:03:28.249Z,13.57
2019-01-03T21:05:58.929Z,11.20
2019-01-03T21:08:28.535Z,14.63
2019-01-03T21:10:58.139Z,9.87
2019-01-03T21:13:27.764Z,10.43
2019-01-03T21:15:57.371Z,10.73
2019-01-03T21:18:26.981Z,11.80
2019-01-03T21:20:56.587Z,12.43
2019-01-03T21:23:26.211Z,11.13
2019-01-03T21:25:55.840Z,11.43
2019-01-03T21:28:25.447Z,14.43
2019-01-03T21:30:55.059Z,11.47
2019-01-03T21:33:24.735Z,12.47
2019-01-03T21:35:54.327Z,13.40
2019-01-03T21:38:23.929Z,11.60
2019-01-03T21:40:53.564Z,12.90
2019-01-03T21:43:23.161Z,15.43
2019-01-03T21:45:52.811Z,10.87
2019-01-03T21:48:22.422Z,10.03
2019-01-03T21:50:52.007Z,11.57
2019-01-03T21:53:21.622Z,12.33
2019-01-03T21:55:51.207Z,12.40
2019-01-03T21:58:20.879Z,12.97
2019-01-03T22:00:50.479Z,14.43
2019-01-03T22:03:20.095Z,12.33
2019-01-03T22:05:49.691Z,16.03
2019-01-03T22:08:19.327Z,13.73
2019-01-03T22:10:48.923Z,12.60
2019-01-03T22:13:19.609Z,14.07
2019-01-03T22:15:49.199Z,11.47
2019-01-03T22:18:18.835Z,11.17
2019-01-03T22:20:48.439Z,14.07
2019-01-03T22:23:18.031Z,11.80
2019-01-03T22:25:47.645Z,13.07
2019-01-03T22:28:17.256Z,14.93
2019-01-03T22:30:46.860Z,19.47
2019-01-03T22:33:29.205Z,12.73
2019-01-03T22:35:58.803Z,14.27
2019-01-03T22:38:28.407Z,12.43
2019-01-03T22:40:58.019Z,15.67
2019-01-03T22:43:27.708Z,13.13
2019-01-03T22:45:57.419Z,19.63
2019-01-03T22:48:27.015Z,20.73
2019-01-03T22:50:56.660Z,15.30
2019-01-03T22:53:26.320Z,18.33
2019-01-03T22:55:55.919Z,13.67
2019-01-03T22:58:25.519Z,13.20
2019-01-03T23:00:55.202Z,16.03
2019-01-03T23:03:24.791Z,16.70
2019-01-03T23:05:54.462Z,18.00
2019-01-03T23:08:24.095Z,15.57
2019-01-03T23:10:53.687Z,16.17
2019-01-03T23:13:23.295Z,13.57
2019-01-03T23:15:53.023Z,17.90
2019-01-03T23:18:22.671Z,15.57
2019-01-03T23:20:52.259Z,15.57
2019-01-03T23:23:21.871Z,13.60
2019-01-03T23:25:51.603Z,14.33
2019-01-03T23:28:21.231Z,16.63
2019-01-03T23:30:51.653Z,20.27
2019-01-03T23:33:21.273Z,18.63
2019-01-03T23:35:50.893Z,15.77
2019-01-03T23:38:20.518Z,17.77
2019-01-03T23:40:50.115Z,17.83
2019-01-03T23:43:19.711Z,17.80
2019-01-03T23:45:49.335Z,15.80
2019-01-03T23:48:18.957Z,16.23
2019-01-03T23:50:48.571Z,17.50
2019-01-03T23:53:18.183Z,16.80
2019-01-03T23:55:48.082Z,16.23
2019-01-03T23:58:17.683Z,17.17
